sensor_id;sensor_type;location;lat;lon;timestamp;pressure;altitude;pressure_sealevel;temperature
28803;BMP280;15949;55.656;37.422;2024-01-25T00:04:16;98211.38;;;-0.59
28803;BMP280;15949;55.656;37.422;2024-01-25T00:09:22;98204.19;;;-0.57
28803;BMP280;15949;55.656;37.422;2024-01-25T00:14:28;98201.91;;;-0.59
28803;BMP280;15949;55.656;37.422;2024-01-25T00:19:34;98196.59;;;-0.62
28803;BMP280;15949;55.656;37.422;2024-01-25T00:24:39;98181.22;;;-0.62
28803;BMP280;15949;55.656;37.422;2024-01-25T00:29:45;98167.78;;;-0.68
28803;BMP280;15949;55.656;37.422;2024-01-25T00:34:51;98178.75;;;-0.67
28803;BMP280;15949;55.656;37.422;2024-01-25T00:39:57;98168.53;;;-0.67
28803;BMP280;15949;55.656;37.422;2024-01-25T00:45:03;98165.50;;;-0.69
28803;BMP280;15949;55.656;37.422;2024-01-25T00:50:09;98156.50;;;-0.67
28803;BMP280;15949;55.656;37.422;2024-01-25T00:55:15;98153.75;;;-0.70
28803;BMP280;15949;55.656;37.422;2024-01-25T01:00:21;98144.84;;;-0.73
28803;BMP280;15949;55.656;37.422;2024-01-25T01:05:27;98146.63;;;-0.73
28803;BMP280;15949;55.656;37.422;2024-01-25T01:10:33;98124.09;;;-0.71
28803;BMP280;15949;55.656;37.422;2024-01-25T01:15:39;98128.44;;;-0.72
28803;BMP280;15949;55.656;37.422;2024-01-25T01:20:44;98113.38;;;-0.73
28803;BMP280;15949;55.656;37.422;2024-01-25T01:25:50;98107.31;;;-0.77
28803;BMP280;15949;55.656;37.422;2024-01-25T01:30:55;98107.31;;;-0.77
28803;BMP280;15949;55.656;37.422;2024-01-25T01:36:01;98111.38;;;-0.76
28803;BMP280;15949;55.656;37.422;2024-01-25T01:41:06;98099.16;;;-0.79
28803;BMP280;15949;55.656;37.422;2024-01-25T01:46:34;98085.72;;;-0.85
28803;BMP280;15949;55.656;37.422;2024-01-25T01:51:47;98072.22;;;-0.85
28803;BMP280;15949;55.656;37.422;2024-01-25T01:56:53;98078.91;;;-0.90
28803;BMP280;15949;55.656;37.422;2024-01-25T02:01:59;98081.94;;;-0.88
28803;BMP280;15949;55.656;37.422;2024-01-25T02:07:05;98074.84;;;-0.91
28803;BMP280;15949;55.656;37.422;2024-01-25T02:12:15;98075.88;;;-0.92
28803;BMP280;15949;55.656;37.422;2024-01-25T02:17:23;98081.75;;;-0.91
28803;BMP280;15949;55.656;37.422;2024-01-25T02:22:29;98073.88;;;-0.95
28803;BMP280;15949;55.656;37.422;2024-01-25T02:27:35;98077.75;;;-0.97
28803;BMP280;15949;55.656;37.422;2024-01-25T02:32:44;98078.31;;;-1.00
28803;BMP280;15949;55.656;37.422;2024-01-25T02:37:49;98074.25;;;-1.01
28803;BMP280;15949;55.656;37.422;2024-01-25T02:42:56;98058.22;;;-1.07
28803;BMP280;15949;55.656;37.422;2024-01-25T02:48:01;98061.34;;;-1.10
28803;BMP280;15949;55.656;37.422;2024-01-25T02:53:08;98057.75;;;-1.09
28803;BMP280;15949;55.656;37.422;2024-01-25T02:58:14;98049.13;;;-1.13
28803;BMP280;15949;55.656;37.422;2024-01-25T03:03:19;98050.63;;;-1.12
28803;BMP280;15949;55.656;37.422;2024-01-25T03:08:25;98045.81;;;-1.13
28803;BMP280;15949;55.656;37.422;2024-01-25T03:13:31;98035.09;;;-1.15
28803;BMP280;15949;55.656;37.422;2024-01-25T03:18:36;98032.81;;;-1.17
28803;BMP280;15949;55.656;37.422;2024-01-25T03:23:42;98032.09;;;-1.17
28803;BMP280;15949;55.656;37.422;2024-01-25T03:28:48;98025.03;;;-1.25
28803;BMP280;15949;55.656;37.422;2024-01-25T03:33:53;98031.69;;;-1.24
28803;BMP280;15949;55.656;37.422;2024-01-25T03:38:59;98035.06;;;-1.29
28803;BMP280;15949;55.656;37.422;2024-01-25T03:44:05;98019.81;;;-1.34
28803;BMP280;15949;55.656;37.422;2024-01-25T03:49:10;98022.38;;;-1.34
28803;BMP280;15949;55.656;37.422;2024-01-25T03:54:16;98021.84;;;-1.31
28803;BMP280;15949;55.656;37.422;2024-01-25T03:59:22;98012.75;;;-1.37
28803;BMP280;15949;55.656;37.422;2024-01-25T04:04:27;98012.75;;;-1.37
28803;BMP280;15949;55.656;37.422;2024-01-25T04:09:33;98003.25;;;-1.37
28803;BMP280;15949;55.656;37.422;2024-01-25T04:14:39;97997.88;;;-1.35
28803;BMP280;15949;55.656;37.422;2024-01-25T04:19:44;98002.34;;;-1.41
28803;BMP280;15949;55.656;37.422;2024-01-25T04:24:50;98006.69;;;-1.41
28803;BMP280;15949;55.656;37.422;2024-01-25T04:29:55;98009.03;;;-1.45
28803;BMP280;15949;55.656;37.422;2024-01-25T04:35:01;98011.31;;;-1.43
28803;BMP280;15949;55.656;37.422;2024-01-25T04:40:07;98018.84;;;-1.52
28803;BMP280;15949;55.656;37.422;2024-01-25T04:45:13;98021.88;;;-1.50
28803;BMP280;15949;55.656;37.422;2024-01-25T04:50:19;98010.41;;;-1.52
28803;BMP280;15949;55.656;37.422;2024-01-25T04:55:24;98016.84;;;-1.55
28803;BMP280;15949;55.656;37.422;2024-01-25T05:00:30;98014.03;;;-1.53
28803;BMP280;15949;55.656;37.422;2024-01-25T05:05:36;98013.03;;;-1.57
28803;BMP280;15949;55.656;37.422;2024-01-25T05:10:41;97992.16;;;-1.59
28803;BMP280;15949;55.656;37.422;2024-01-25T05:15:47;97995.13;;;-1.71
28803;BMP280;15949;55.656;37.422;2024-01-25T05:20:53;98010.72;;;-1.72
28803;BMP280;15949;55.656;37.422;2024-01-25T05:25:58;98008.38;;;-1.69
28803;BMP280;15949;55.656;37.422;2024-01-25T05:31:04;98010.38;;;-1.66
28803;BMP280;15949;55.656;37.422;2024-01-25T05:36:10;98008.88;;;-1.67
28803;BMP280;15949;55.656;37.422;2024-01-25T05:41:15;98011.69;;;-1.68
28803;BMP280;15949;55.656;37.422;2024-01-25T05:46:21;98005.63;;;-1.72
28803;BMP280;15949;55.656;37.422;2024-01-25T05:51:27;98009.41;;;-1.70
28803;BMP280;15949;55.656;37.422;2024-01-25T05:56:32;97999.38;;;-1.66
28803;BMP280;15949;55.656;37.422;2024-01-25T06:01:38;98010.66;;;-1.67
28803;BMP280;15949;55.656;37.422;2024-01-25T06:06:44;98001.47;;;-1.68
28803;BMP280;15949;55.656;37.422;2024-01-25T06:11:49;97994.09;;;-1.70
28803;BMP280;15949;55.656;37.422;2024-01-25T06:16:55;97996.38;;;-1.68
28803;BMP280;15949;55.656;37.422;2024-01-25T06:22:01;97994.00;;;-1.65
28803;BMP280;15949;55.656;37.422;2024-01-25T06:27:09;97997.53;;;-1.61
28803;BMP280;15949;55.656;37.422;2024-01-25T06:32:15;98002.44;;;-1.64
28803;BMP280;15949;55.656;37.422;2024-01-25T06:37:20;97988.06;;;-1.60
28803;BMP280;15949;55.656;37.422;2024-01-25T06:42:26;97988.84;;;-1.60
28803;BMP280;15949;55.656;37.422;2024-01-25T06:47:32;97993.44;;;-1.62
28803;BMP280;15949;55.656;37.422;2024-01-25T06:52:37;98004.34;;;-1.56
28803;BMP280;15949;55.656;37.422;2024-01-25T06:57:43;98005.88;;;-1.55
28803;BMP280;15949;55.656;37.422;2024-01-25T07:02:48;97999.75;;;-1.54
28803;BMP280;15949;55.656;37.422;2024-01-25T07:07:54;98003.41;;;-1.60
28803;BMP280;15949;55.656;37.422;2024-01-25T07:13:00;98002.38;;;-1.59
28803;BMP280;15949;55.656;37.422;2024-01-25T07:18:05;98002.50;;;-1.51
28803;BMP280;15949;55.656;37.422;2024-01-25T07:23:11;97992.28;;;-1.51
28803;BMP280;15949;55.656;37.422;2024-01-25T07:28:18;97990.94;;;-1.48
28803;BMP280;15949;55.656;37.422;2024-01-25T07:33:24;97998.25;;;-1.42
28803;BMP280;15949;55.656;37.422;2024-01-25T07:38:30;97993.03;;;-1.37
28803;BMP280;15949;55.656;37.422;2024-01-25T07:43:36;97990.50;;;-1.37
28803;BMP280;15949;55.656;37.422;2024-01-25T07:48:41;97986.06;;;-1.31
28803;BMP280;15949;55.656;37.422;2024-01-25T07:53:47;97990.03;;;-1.25
28803;BMP280;15949;55.656;37.422;2024-01-25T07:58:53;97994.31;;;-1.20
28803;BMP280;15949;55.656;37.422;2024-01-25T08:03:58;97998.03;;;-1.13
28803;BMP280;15949;55.656;37.422;2024-01-25T08:09:05;97991.59;;;-0.97
28803;BMP280;15949;55.656;37.422;2024-01-25T08:14:11;97994.44;;;-0.98
28803;BMP280;15949;55.656;37.422;2024-01-25T08:19:16;98001.56;;;-0.95
28803;BMP280;15949;55.656;37.422;2024-01-25T08:24:22;97986.47;;;-0.83
28803;BMP280;15949;55.656;37.422;2024-01-25T08:29:27;97986.78;;;-0.84
28803;BMP280;15949;55.656;37.422;2024-01-25T08:34:33;97989.41;;;-0.90
28803;BMP280;15949;55.656;37.422;2024-01-25T08:39:39;97989.53;;;-0.95
28803;BMP280;15949;55.656;37.422;2024-01-25T08:44:44;98001.06;;;-0.97
28803;BMP280;15949;55.656;37.422;2024-01-25T08:49:54;98002.31;;;-0.95
28803;BMP280;15949;55.656;37.422;2024-01-25T08:55:00;97991.97;;;-0.90
28803;BMP280;15949;55.656;37.422;2024-01-25T09:00:06;98001.34;;;-0.99
28803;BMP280;15949;55.656;37.422;2024-01-25T09:05:15;97998.59;;;-1.02
28803;BMP280;15949;55.656;37.422;2024-01-25T09:10:21;98001.91;;;-1.02
28803;BMP280;15949;55.656;37.422;2024-01-25T09:15:26;97997.44;;;-1.10
28803;BMP280;15949;55.656;37.422;2024-01-25T09:20:33;97997.63;;;-1.06
28803;BMP280;15949;55.656;37.422;2024-01-25T09:25:38;97997.84;;;-1.03
28803;BMP280;15949;55.656;37.422;2024-01-25T09:30:44;97990.16;;;-1.03
28803;BMP280;15949;55.656;37.422;2024-01-25T09:35:50;97987.22;;;-1.10
28803;BMP280;15949;55.656;37.422;2024-01-25T09:40:56;97987.06;;;-1.00
28803;BMP280;15949;55.656;37.422;2024-01-25T09:46:02;97979.47;;;-1.05
28803;BMP280;15949;55.656;37.422;2024-01-25T09:51:07;97983.56;;;-0.90
28803;BMP280;15949;55.656;37.422;2024-01-25T09:56:13;97973.03;;;-0.89
28803;BMP280;15949;55.656;37.422;2024-01-25T10:01:21;97966.72;;;-0.91
28803;BMP280;15949;55.656;37.422;2024-01-25T10:06:26;97965.06;;;-0.73
28803;BMP280;15949;55.656;37.422;2024-01-25T10:11:35;97971.78;;;-0.64
28803;BMP280;15949;55.656;37.422;2024-01-25T10:16:41;97969.22;;;-0.64
28803;BMP280;15949;55.656;37.422;2024-01-25T10:21:46;97969.03;;;-0.67
28803;BMP280;15949;55.656;37.422;2024-01-25T10:26:52;97972.56;;;-0.63
28803;BMP280;15949;55.656;37.422;2024-01-25T10:31:58;97967.22;;;-0.53
28803;BMP280;15949;55.656;37.422;2024-01-25T10:37:07;97967.88;;;-0.48
28803;BMP280;15949;55.656;37.422;2024-01-25T10:42:13;97969.97;;;-0.14
28803;BMP280;15949;55.656;37.422;2024-01-25T10:47:19;97974.78;;;0.10
28803;BMP280;15949;55.656;37.422;2024-01-25T10:52:25;97964.81;;;0.22
28803;BMP280;15949;55.656;37.422;2024-01-25T10:57:51;97972.22;;;0.10
28803;BMP280;15949;55.656;37.422;2024-01-25T11:02:58;97974.97;;;0.14
28803;BMP280;15949;55.656;37.422;2024-01-25T11:08:03;97973.47;;;-0.10
28803;BMP280;15949;55.656;37.422;2024-01-25T11:13:14;97971.22;;;-0.25
28803;BMP280;15949;55.656;37.422;2024-01-25T11:18:25;97973.88;;;-0.30
28803;BMP280;15949;55.656;37.422;2024-01-25T11:23:31;97971.97;;;-0.47
28803;BMP280;15949;55.656;37.422;2024-01-25T11:28:37;97975.66;;;-0.66
28803;BMP280;15949;55.656;37.422;2024-01-25T11:33:43;97974.53;;;-0.74
28803;BMP280;15949;55.656;37.422;2024-01-25T11:38:49;97973.97;;;-0.84
28803;BMP280;15949;55.656;37.422;2024-01-25T11:43:54;97975.13;;;-0.77
28803;BMP280;15949;55.656;37.422;2024-01-25T11:49:00;97975.38;;;-0.78
28803;BMP280;15949;55.656;37.422;2024-01-25T11:54:06;97984.50;;;-0.72
28803;BMP280;15949;55.656;37.422;2024-01-25T11:59:12;97985.69;;;-0.83
28803;BMP280;15949;55.656;37.422;2024-01-25T12:04:18;97985.81;;;-0.89
28803;BMP280;15949;55.656;37.422;2024-01-25T12:09:23;97986.66;;;-0.93
28803;BMP280;15949;55.656;37.422;2024-01-25T12:14:29;97982.31;;;-0.93
28803;BMP280;15949;55.656;37.422;2024-01-25T12:19:35;97994.63;;;-0.95
28803;BMP280;15949;55.656;37.422;2024-01-25T12:24:40;97995.38;;;-0.94
28803;BMP280;15949;55.656;37.422;2024-01-25T12:29:46;97997.28;;;-1.00
28803;BMP280;15949;55.656;37.422;2024-01-25T12:34:55;97992.81;;;-1.08
28803;BMP280;15949;55.656;37.422;2024-01-25T12:40:01;97993.88;;;-1.09
28803;BMP280;15949;55.656;37.422;2024-01-25T12:45:08;97998.47;;;-1.11
28803;BMP280;15949;55.656;37.422;2024-01-25T12:50:14;97998.56;;;-1.16
28803;BMP280;15949;55.656;37.422;2024-01-25T12:55:20;98011.44;;;-1.21
28803;BMP280;15949;55.656;37.422;2024-01-25T13:00:25;97996.94;;;-1.25
28803;BMP280;15949;55.656;37.422;2024-01-25T13:05:31;97993.28;;;-1.19
28803;BMP280;15949;55.656;37.422;2024-01-25T13:10:40;98003.13;;;-1.13
28803;BMP280;15949;55.656;37.422;2024-01-25T13:15:45;98012.38;;;-1.17
28803;BMP280;15949;55.656;37.422;2024-01-25T13:20:51;98012.38;;;-1.17
28803;BMP280;15949;55.656;37.422;2024-01-25T13:25:57;98023.53;;;-1.26
28803;BMP280;15949;55.656;37.422;2024-01-25T13:31:02;98021.84;;;-1.31
28803;BMP280;15949;55.656;37.422;2024-01-25T13:36:08;98030.13;;;-1.39
28803;BMP280;15949;55.656;37.422;2024-01-25T13:41:16;98031.66;;;-1.38
28803;BMP280;15949;55.656;37.422;2024-01-25T13:46:22;98035.81;;;-1.42
28803;BMP280;15949;55.656;37.422;2024-01-25T13:51:27;98040.53;;;-1.49
28803;BMP280;15949;55.656;37.422;2024-01-25T13:56:33;98053.91;;;-1.57
28803;BMP280;15949;55.656;37.422;2024-01-25T14:01:38;98043.84;;;-1.67
28803;BMP280;15949;55.656;37.422;2024-01-25T14:06:44;98044.63;;;-1.67
28803;BMP280;15949;55.656;37.422;2024-01-25T14:11:49;98036.13;;;-1.62
28803;BMP280;15949;55.656;37.422;2024-01-25T14:16:55;98042.06;;;-1.67
28803;BMP280;15949;55.656;37.422;2024-01-25T14:22:01;98044.38;;;-1.70
28803;BMP280;15949;55.656;37.422;2024-01-25T14:27:06;98045.50;;;-1.76
28803;BMP280;15949;55.656;37.422;2024-01-25T14:32:12;98055.44;;;-1.75
28803;BMP280;15949;55.656;37.422;2024-01-25T14:37:17;98050.06;;;-1.73
28803;BMP280;15949;55.656;37.422;2024-01-25T14:42:23;98063.59;;;-1.73
28803;BMP280;15949;55.656;37.422;2024-01-25T14:47:29;98062.25;;;-1.70
28803;BMP280;15949;55.656;37.422;2024-01-25T14:52:34;98063.66;;;-1.78
28803;BMP280;15949;55.656;37.422;2024-01-25T14:57:40;98063.84;;;-1.74
28803;BMP280;15949;55.656;37.422;2024-01-25T15:02:46;98073.53;;;-1.71
28803;BMP280;15949;55.656;37.422;2024-01-25T15:07:52;98079.38;;;-1.71
28803;BMP280;15949;55.656;37.422;2024-01-25T15:12:57;98080.97;;;-1.75
28803;BMP280;15949;55.656;37.422;2024-01-25T15:18:04;98094.56;;;-1.80
28803;BMP280;15949;55.656;37.422;2024-01-25T15:23:10;98091.47;;;-1.76
28803;BMP280;15949;55.656;37.422;2024-01-25T15:28:16;98104.69;;;-1.74
28803;BMP280;15949;55.656;37.422;2024-01-25T15:33:21;98099.53;;;-1.69
28803;BMP280;15949;55.656;37.422;2024-01-25T15:38:27;98107.25;;;-1.74
28803;BMP280;15949;55.656;37.422;2024-01-25T15:43:33;98107.81;;;-1.78
28803;BMP280;15949;55.656;37.422;2024-01-25T15:48:38;98111.13;;;-1.77
28803;BMP280;15949;55.656;37.422;2024-01-25T15:53:44;98123.13;;;-1.78
28803;BMP280;15949;55.656;37.422;2024-01-25T15:58:50;98117.00;;;-1.76
28803;BMP280;15949;55.656;37.422;2024-01-25T16:03:55;98113.94;;;-1.79
28803;BMP280;15949;55.656;37.422;2024-01-25T16:09:02;98120.59;;;-1.78
28803;BMP280;15949;55.656;37.422;2024-01-25T16:14:07;98118.59;;;-1.81
28803;BMP280;15949;55.656;37.422;2024-01-25T16:19:13;98120.09;;;-1.80
28803;BMP280;15949;55.656;37.422;2024-01-25T16:24:19;98122.94;;;-1.81
28803;BMP280;15949;55.656;37.422;2024-01-25T16:29:24;98127.75;;;-1.80
28803;BMP280;15949;55.656;37.422;2024-01-25T16:34:30;98120.38;;;-1.81
28803;BMP280;15949;55.656;37.422;2024-01-25T16:39:35;98128.78;;;-1.81
28803;BMP280;15949;55.656;37.422;2024-01-25T16:44:41;98124.16;;;-1.79
28803;BMP280;15949;55.656;37.422;2024-01-25T16:49:47;98130.91;;;-1.88
28803;BMP280;15949;55.656;37.422;2024-01-25T16:54:52;98135.47;;;-1.85
28803;BMP280;15949;55.656;37.422;2024-01-25T16:59:58;98131.88;;;-1.84
28803;BMP280;15949;55.656;37.422;2024-01-25T17:05:04;98133.97;;;-1.86
28803;BMP280;15949;55.656;37.422;2024-01-25T17:10:09;98137.84;;;-1.93
28803;BMP280;15949;55.656;37.422;2024-01-25T17:15:15;98139.16;;;-1.96
28803;BMP280;15949;55.656;37.422;2024-01-25T17:20:21;98147.31;;;-1.94
28803;BMP280;15949;55.656;37.422;2024-01-25T17:25:27;98139.16;;;-1.96
28803;BMP280;15949;55.656;37.422;2024-01-25T17:30:33;98150.16;;;-1.95
28803;BMP280;15949;55.656;37.422;2024-01-25T17:35:39;98149.31;;;-1.91
28803;BMP280;15949;55.656;37.422;2024-01-25T17:40:47;98152.91;;;-1.92
28803;BMP280;15949;55.656;37.422;2024-01-25T17:45:53;98153.47;;;-1.95
28803;BMP280;15949;55.656;37.422;2024-01-25T17:50:59;98151.97;;;-2.01
28803;BMP280;15949;55.656;37.422;2024-01-25T17:56:05;98163.28;;;-2.07
28803;BMP280;15949;55.656;37.422;2024-01-25T18:01:11;98161.22;;;-2.05
28803;BMP280;15949;55.656;37.422;2024-01-25T18:06:16;98162.78;;;-2.09
28803;BMP280;15949;55.656;37.422;2024-01-25T18:11:22;98169.19;;;-2.11
28803;BMP280;15949;55.656;37.422;2024-01-25T18:16:28;98178.88;;;-2.08
28803;BMP280;15949;55.656;37.422;2024-01-25T18:21:33;98188.28;;;-2.04
28803;BMP280;15949;55.656;37.422;2024-01-25T18:26:39;98192.81;;;-2.01
28803;BMP280;15949;55.656;37.422;2024-01-25T18:31:44;98196.69;;;-2.03
28803;BMP280;15949;55.656;37.422;2024-01-25T18:36:50;98197.50;;;-2.08
28803;BMP280;15949;55.656;37.422;2024-01-25T18:41:56;98203.88;;;-2.10
28803;BMP280;15949;55.656;37.422;2024-01-25T18:47:01;98201.06;;;-2.09
28803;BMP280;15949;55.656;37.422;2024-01-25T18:52:07;98209.81;;;-2.15
28803;BMP280;15949;55.656;37.422;2024-01-25T18:57:15;98223.28;;;-2.09
28803;BMP280;15949;55.656;37.422;2024-01-25T19:02:21;98223.09;;;-2.18
28803;BMP280;15949;55.656;37.422;2024-01-25T19:07:27;98213.31;;;-2.11
28803;BMP280;15949;55.656;37.422;2024-01-25T19:12:33;98220.50;;;-2.13
28803;BMP280;15949;55.656;37.422;2024-01-25T19:17:38;98225.56;;;-2.08
28803;BMP280;15949;55.656;37.422;2024-01-25T19:22:44;98228.38;;;-2.09
28803;BMP280;15949;55.656;37.422;2024-01-25T19:27:50;98227.56;;;-2.05
28803;BMP280;15949;55.656;37.422;2024-01-25T19:32:55;98225.59;;;-2.13
28803;BMP280;15949;55.656;37.422;2024-01-25T19:38:01;98231.75;;;-2.14
28803;BMP280;15949;55.656;37.422;2024-01-25T19:43:07;98235.28;;;-2.10
28803;BMP280;15949;55.656;37.422;2024-01-25T19:48:12;98239.34;;;-2.09
28803;BMP280;15949;55.656;37.422;2024-01-25T19:53:19;98242.66;;;-2.08
28803;BMP280;15949;55.656;37.422;2024-01-25T19:58:25;98248.56;;;-2.13
28803;BMP280;15949;55.656;37.422;2024-01-25T20:03:33;98255.47;;;-2.13
28803;BMP280;15949;55.656;37.422;2024-01-25T20:08:39;98242.97;;;-2.15
28803;BMP280;15949;55.656;37.422;2024-01-25T20:13:45;98245.56;;;-2.20
28803;BMP280;15949;55.656;37.422;2024-01-25T20:18:50;98254.00;;;-2.25
28803;BMP280;15949;55.656;37.422;2024-01-25T20:23:56;98252.75;;;-2.22
28803;BMP280;15949;55.656;37.422;2024-01-25T20:29:01;98258.59;;;-2.21
28803;BMP280;15949;55.656;37.422;2024-01-25T20:34:07;98251.22;;;-2.23
28803;BMP280;15949;55.656;37.422;2024-01-25T20:39:13;98260.88;;;-2.20
28803;BMP280;15949;55.656;37.422;2024-01-25T20:44:18;98261.63;;;-2.19
28803;BMP280;15949;55.656;37.422;2024-01-25T20:49:24;98269.56;;;-2.21
28803;BMP280;15949;55.656;37.422;2024-01-25T20:54:30;98272.16;;;-2.26
28803;BMP280;15949;55.656;37.422;2024-01-25T20:59:38;98276.28;;;-2.30
28803;BMP280;15949;55.656;37.422;2024-01-25T21:04:44;98284.50;;;-2.38
28803;BMP280;15949;55.656;37.422;2024-01-25T21:09:50;98281.25;;;-2.44
28803;BMP280;15949;55.656;37.422;2024-01-25T21:14:56;98289.69;;;-2.48
28803;BMP280;15949;55.656;37.422;2024-01-25T21:20:01;98292.00;;;-2.52
28803;BMP280;15949;55.656;37.422;2024-01-25T21:25:09;98292.28;;;-2.53
28803;BMP280;15949;55.656;37.422;2024-01-25T21:30:15;98304.28;;;-2.59
28803;BMP280;15949;55.656;37.422;2024-01-25T21:35:21;98293.34;;;-2.64
28803;BMP280;15949;55.656;37.422;2024-01-25T21:40:27;98300.53;;;-2.66
28803;BMP280;15949;55.656;37.422;2024-01-25T21:45:32;98304.63;;;-2.71
28803;BMP280;15949;55.656;37.422;2024-01-25T21:50:38;98306.69;;;-2.78
28803;BMP280;15949;55.656;37.422;2024-01-25T21:55:44;98324.03;;;-2.75
28803;BMP280;15949;55.656;37.422;2024-01-25T22:00:50;98310.25;;;-2.79
28803;BMP280;15949;55.656;37.422;2024-01-25T22:05:56;98310.53;;;-2.75
28803;BMP280;15949;55.656;37.422;2024-01-25T22:11:01;98307.00;;;-2.84
28803;BMP280;15949;55.656;37.422;2024-01-25T22:16:07;98323.06;;;-2.84
28803;BMP280;15949;55.656;37.422;2024-01-25T22:21:15;98327.91;;;-2.92
28803;BMP280;15949;55.656;37.422;2024-01-25T22:26:20;98325.91;;;-2.95
28803;BMP280;15949;55.656;37.422;2024-01-25T22:31:26;98335.06;;;-2.94
28803;BMP280;15949;55.656;37.422;2024-01-25T22:36:32;98335.56;;;-2.92
28803;BMP280;15949;55.656;37.422;2024-01-25T22:41:37;98345.03;;;-2.98
28803;BMP280;15949;55.656;37.422;2024-01-25T22:46:43;98340.94;;;-3.04
28803;BMP280;15949;55.656;37.422;2024-01-25T22:51:49;98347.81;;;-3.04
28803;BMP280;15949;55.656;37.422;2024-01-25T22:56:54;98346.81;;;-3.03
28803;BMP280;15949;55.656;37.422;2024-01-25T23:02:00;98357.78;;;-3.13
28803;BMP280;15949;55.656;37.422;2024-01-25T23:07:06;98357.03;;;-3.14
28803;BMP280;15949;55.656;37.422;2024-01-25T23:12:11;98364.44;;;-3.17
28803;BMP280;15949;55.656;37.422;2024-01-25T23:17:17;98368.28;;;-3.25
28803;BMP280;15949;55.656;37.422;2024-01-25T23:22:22;98370.03;;;-3.20
28803;BMP280;15949;55.656;37.422;2024-01-25T23:27:28;98379.22;;;-3.24
28803;BMP280;15949;55.656;37.422;2024-01-25T23:32:34;98382.78;;;-3.25
28803;BMP280;15949;55.656;37.422;2024-01-25T23:37:42;98390.16;;;-3.19
28803;BMP280;15949;55.656;37.422;2024-01-25T23:42:48;98395.00;;;-3.17
28803;BMP280;15949;55.656;37.422;2024-01-25T23:47:53;98398.31;;;-3.22
28803;BMP280;15949;55.656;37.422;2024-01-25T23:52:59;98404.19;;;-3.21
28803;BMP280;15949;55.656;37.422;2024-01-25T23:58:04;98411.81;;;-3.21
